Time;durP1;ratioP1;P1;durP2;ratioP2;P2;SDS_P1;SDS_P2;PMS_P1;PMS_P2;Temp;Humidity;BMP_temperature;BMP_pressure;BME280_temperature;BME280_humidity;BME280_pressure;Samples;Min_cycle;Max_cycle;Signal;HPM_P1;HPM_P2
2022/09/06 00:00:57;;;;;;;7.95;4.40;;;;;;;;;;5068897;28;20024;-57
2022/09/06 00:03:22;;;;;;;5.78;4.40;;;;;;;;;;5068258;28;20619;-58
2022/09/06 00:05:48;;;;;;;5.88;4.50;;;;;;;;;;5068300;28;20021;-57
2022/09/06 00:08:13;;;;;;;6.72;4.30;;;;;;;;;;5067730;28;20101;-56
2022/09/06 00:10:41;;;;;;;6.32;4.15;;;;;;;;;;5068921;28;20016;-57
2022/09/06 00:13:08;;;;;;;8.38;4.50;;;;;;;;;;5067615;28;20108;-56
2022/09/06 00:15:35;;;;;;;5.93;4.63;;;;;;;;;;5057532;28;20074;-57
2022/09/06 00:18:02;;;;;;;8.70;4.72;;;;;;;;;;5065563;28;20016;-55
2022/09/06 00:20:29;;;;;;;7.68;4.70;;;;;;;;;;5067105;28;20082;-57
2022/09/06 00:22:59;;;;;;;6.53;4.85;;;;;;;;;;5067848;28;20040;-57
2022/09/06 00:25:25;;;;;;;5.43;4.28;;;;;;;;;;5068887;28;20028;-57
2022/09/06 00:28:01;;;;;;;7.25;4.80;;;;;;;;;;5067625;28;20052;-56
2022/09/06 00:30:28;;;;;;;6.22;4.38;;;;;;;;;;5069304;28;20024;-56
2022/09/06 00:32:54;;;;;;;8.98;4.50;;;;;;;;;;5059292;28;20056;-57
2022/09/06 00:35:23;;;;;;;6.97;4.15;;;;;;;;;;5068267;28;20059;-58
2022/09/06 00:37:49;;;;;;;6.88;4.70;;;;;;;;;;5071963;28;20021;-57
2022/09/06 00:40:14;;;;;;;6.93;4.20;;;;;;;;;;5072925;28;20243;-57
2022/09/06 00:42:40;;;;;;;5.78;4.30;;;;;;;;;;5071452;28;20028;-57
2022/09/06 00:45:07;;;;;;;7.47;4.50;;;;;;;;;;5071934;28;20386;-57
2022/09/06 00:47:34;;;;;;;4.82;4.10;;;;;;;;;;5069283;28;20021;-57
2022/09/06 00:50:00;;;;;;;8.52;4.50;;;;;;;;;;5062883;28;20020;-57
2022/09/06 00:52:27;;;;;;;7.28;4.20;;;;;;;;;;5071708;28;20107;-57
2022/09/06 00:54:53;;;;;;;5.70;4.45;;;;;;;;;;5071897;28;20095;-57
2022/09/06 00:57:18;;;;;;;6.85;4.47;;;;;;;;;;5070810;28;20024;-57
2022/09/06 00:59:46;;;;;;;6.10;4.43;;;;;;;;;;5071426;28;20528;-57
2022/09/06 01:02:12;;;;;;;5.93;4.20;;;;;;;;;;5071434;28;20485;-57
2022/09/06 01:04:41;;;;;;;6.88;4.47;;;;;;;;;;5059322;28;20060;-57
2022/09/06 01:07:21;;;;;;;5.53;4.45;;;;;;;;;;5070424;28;20535;-57
2022/09/06 01:09:58;;;;;;;5.93;4.22;;;;;;;;;;5069843;28;20067;-57
2022/09/06 01:12:28;;;;;;;7.15;4.43;;;;;;;;;;5070992;28;20107;-57
2022/09/06 01:15:27;;;;;;;5.90;4.60;;;;;;;;;;5070339;28;20501;-57
2022/09/06 01:18:22;;;;;;;7.18;4.15;;;;;;;;;;5070641;28;20514;-57
2022/09/06 01:21:08;;;;;;;6.85;4.70;;;;;;;;;;5060773;28;20033;-57
2022/09/06 01:24:04;;;;;;;6.40;4.32;;;;;;;;;;5067175;28;20025;-57
2022/09/06 01:26:39;;;;;;;6.40;4.00;;;;;;;;;;5071148;28;20440;-57
2022/09/06 01:29:43;;;;;;;6.70;4.00;;;;;;;;;;5069999;28;20029;-57
2022/09/06 01:32:26;;;;;;;4.57;3.83;;;;;;;;;;5070700;28;20066;-57
2022/09/06 01:35:05;;;;;;;9.60;4.28;;;;;;;;;;5070772;28;20505;-57
2022/09/06 01:37:31;;;;;;;6.57;4.88;;;;;;;;;;5071732;28;20039;-57
2022/09/06 01:39:57;;;;;;;8.35;4.60;;;;;;;;;;5071042;28;20024;-57
2022/09/06 01:42:26;;;;;;;7.25;5.10;;;;;;;;;;5070343;28;20046;-57
2022/09/06 01:45:11;;;;;;;6.65;4.68;;;;;;;;;;5069963;28;20510;-57
2022/09/06 01:47:47;;;;;;;6.90;4.78;;;;;;;;;;5071102;28;20514;-57
2022/09/06 01:50:41;;;;;;;8.85;4.65;;;;;;;;;;5071059;28;20639;-57
2022/09/06 01:53:27;;;;;;;6.03;4.38;;;;;;;;;;5057562;28;20033;-57
2022/09/06 01:56:17;;;;;;;6.60;4.53;;;;;;;;;;5057919;28;20455;-57
2022/09/06 01:59:01;;;;;;;7.05;4.55;;;;;;;;;;5067818;28;20085;-57
2022/09/06 02:01:29;;;;;;;7.13;4.97;;;;;;;;;;5069851;28;20463;-57
2022/09/06 02:04:03;;;;;;;10.63;4.50;;;;;;;;;;5065918;28;20111;-57
2022/09/06 02:06:33;;;;;;;7.05;4.50;;;;;;;;;;5069733;28;20191;-57
2022/09/06 02:09:09;;;;;;;7.15;4.70;;;;;;;;;;5070485;28;20016;-57
2022/09/06 02:11:57;;;;;;;7.38;5.05;;;;;;;;;;5066579;28;20031;-57
2022/09/06 02:14:31;;;;;;;8.93;4.85;;;;;;;;;;5066269;28;20036;-57
2022/09/06 02:16:59;;;;;;;9.00;4.80;;;;;;;;;;5069409;28;20079;-58
2022/09/06 02:19:38;;;;;;;6.75;4.72;;;;;;;;;;5070115;28;20547;-57
2022/09/06 02:22:08;;;;;;;6.95;5.05;;;;;;;;;;5068489;28;20503;-58
2022/09/06 02:24:37;;;;;;;7.93;4.88;;;;;;;;;;5069379;28;20036;-57
2022/09/06 02:27:03;;;;;;;9.25;4.57;;;;;;;;;;5062311;28;20024;-57
2022/09/06 02:29:29;;;;;;;9.15;5.30;;;;;;;;;;5069907;28;20067;-57
2022/09/06 02:32:28;;;;;;;6.95;5.05;;;;;;;;;;5068312;28;20048;-58
2022/09/06 02:34:55;;;;;;;9.15;4.78;;;;;;;;;;5070458;28;20032;-57
2022/09/06 02:37:25;;;;;;;6.10;4.57;;;;;;;;;;5070760;28;20044;-57
2022/09/06 02:39:53;;;;;;;7.07;4.68;;;;;;;;;;5069086;28;20017;-57
2022/09/06 02:42:18;;;;;;;7.28;4.90;;;;;;;;;;5063256;28;20037;-57
2022/09/06 02:44:44;;;;;;;7.22;5.03;;;;;;;;;;5057702;28;20460;-57
2022/09/06 02:47:09;;;;;;;6.80;5.03;;;;;;;;;;5064700;28;20062;-57
2022/09/06 02:49:35;;;;;;;9.30;5.97;;;;;;;;;;5068621;28;20497;-58
2022/09/06 02:52:00;;;;;;;8.18;5.45;;;;;;;;;;5069210;28;20033;-57
2022/09/06 02:54:26;;;;;;;10.88;5.30;;;;;;;;;;5069621;28;20497;-57
2022/09/06 02:56:51;;;;;;;7.35;5.20;;;;;;;;;;5069332;28;20029;-57
2022/09/06 02:59:16;;;;;;;12.68;5.47;;;;;;;;;;5067722;28;20430;-57
2022/09/06 03:01:42;;;;;;;9.15;6.32;;;;;;;;;;5068590;28;20040;-57
2022/09/06 03:04:07;;;;;;;8.30;5.85;;;;;;;;;;5066806;28;20016;-57
2022/09/06 03:06:33;;;;;;;6.90;6.03;;;;;;;;;;5069178;28;20028;-57
2022/09/06 03:08:59;;;;;;;9.35;5.85;;;;;;;;;;5068965;28;20016;-58
2022/09/06 03:11:25;;;;;;;10.77;6.28;;;;;;;;;;5068184;28;20073;-57
2022/09/06 03:13:51;;;;;;;9.80;6.93;;;;;;;;;;5068651;28;20099;-57
2022/09/06 03:16:17;;;;;;;9.35;6.22;;;;;;;;;;5069401;28;20028;-57
2022/09/06 03:18:42;;;;;;;10.40;6.28;;;;;;;;;;5068981;28;20028;-57
2022/09/06 03:21:08;;;;;;;9.75;6.63;;;;;;;;;;5068252;28;20036;-57
2022/09/06 03:23:33;;;;;;;10.57;6.55;;;;;;;;;;5068399;28;20031;-57
2022/09/06 03:25:59;;;;;;;16.85;6.65;;;;;;;;;;5058240;28;20021;-58
2022/09/06 03:28:24;;;;;;;9.23;6.45;;;;;;;;;;5068624;28;20545;-57
2022/09/06 03:30:51;;;;;;;10.95;6.15;;;;;;;;;;5059564;28;20021;-57
2022/09/06 03:33:17;;;;;;;8.95;6.90;;;;;;;;;;5060068;28;20059;-57
2022/09/06 03:35:51;;;;;;;12.57;6.70;;;;;;;;;;5068951;28;20497;-59
2022/09/06 03:38:17;;;;;;;16.60;7.63;;;;;;;;;;5069159;28;20020;-58
2022/09/06 03:40:47;;;;;;;23.05;8.52;;;;;;;;;;5067611;28;20035;-59
2022/09/06 03:43:13;;;;;;;16.25;7.80;;;;;;;;;;5065587;28;20395;-59
2022/09/06 03:45:39;;;;;;;14.40;7.35;;;;;;;;;;5068398;28;20112;-59
2022/09/06 03:48:05;;;;;;;13.63;7.70;;;;;;;;;;5056211;28;20111;-58
2022/09/06 03:50:30;;;;;;;11.10;5.90;;;;;;;;;;5060881;28;20055;-58
2022/09/06 03:52:55;;;;;;;13.73;7.07;;;;;;;;;;5067752;28;20032;-57
2022/09/06 03:55:21;;;;;;;14.43;6.85;;;;;;;;;;5068026;28;20036;-58
2022/09/06 03:57:46;;;;;;;11.32;7.28;;;;;;;;;;5068496;28;20027;-58
2022/09/06 04:00:12;;;;;;;15.20;7.25;;;;;;;;;;5067574;28;20481;-57
2022/09/06 04:02:38;;;;;;;13.55;7.20;;;;;;;;;;5063970;28;20024;-57
2022/09/06 04:05:03;;;;;;;10.93;7.30;;;;;;;;;;5068425;28;20070;-57
2022/09/06 04:07:29;;;;;;;15.00;8.63;;;;;;;;;;5065618;28;20016;-58
2022/09/06 04:09:54;;;;;;;10.15;7.13;;;;;;;;;;5068340;28;20119;-58
2022/09/06 04:12:20;;;;;;;10.65;6.72;;;;;;;;;;5070150;28;20103;-58
2022/09/06 04:14:45;;;;;;;13.55;6.00;;;;;;;;;;5072086;28;20390;-58
2022/09/06 04:17:11;;;;;;;9.18;5.47;;;;;;;;;;5072848;28;20048;-58
2022/09/06 04:19:36;;;;;;;9.07;4.13;;;;;;;;;;5071184;28;20020;-58
2022/09/06 04:22:02;;;;;;;6.93;5.07;;;;;;;;;;5060880;28;20021;-58
2022/09/06 04:24:27;;;;;;;10.77;4.82;;;;;;;;;;5063114;28;20028;-57
2022/09/06 04:26:53;;;;;;;10.05;5.05;;;;;;;;;;5072136;28;21530;-57
2022/09/06 04:29:18;;;;;;;6.43;5.30;;;;;;;;;;5072044;28;20028;-57
2022/09/06 04:31:43;;;;;;;8.68;4.80;;;;;;;;;;5072000;28;20030;-57
2022/09/06 04:34:09;;;;;;;7.47;4.95;;;;;;;;;;5072598;28;20114;-57
2022/09/06 04:36:35;;;;;;;9.32;5.47;;;;;;;;;;5072015;28;20032;-57
2022/09/06 04:39:00;;;;;;;6.85;4.70;;;;;;;;;;5072062;28;20109;-57
2022/09/06 04:41:25;;;;;;;12.55;5.35;;;;;;;;;;5071338;28;20504;-57
2022/09/06 04:43:51;;;;;;;10.57;5.28;;;;;;;;;;5070860;28;20017;-58
2022/09/06 04:46:29;;;;;;;6.30;4.72;;;;;;;;;;5071633;28;20108;-57
2022/09/06 04:48:56;;;;;;;7.57;5.20;;;;;;;;;;5072112;28;20020;-57
2022/09/06 04:51:22;;;;;;;5.78;4.68;;;;;;;;;;5065634;28;20024;-57
2022/09/06 04:53:48;;;;;;;8.98;5.18;;;;;;;;;;5071618;28;20496;-57
2022/09/06 04:56:20;;;;;;;7.72;5.32;;;;;;;;;;5071637;28;20028;-57
2022/09/06 04:58:47;;;;;;;9.50;5.53;;;;;;;;;;5071452;28;20025;-57
2022/09/06 05:01:13;;;;;;;7.43;5.32;;;;;;;;;;5070813;28;20063;-57
2022/09/06 05:03:38;;;;;;;10.80;6.05;;;;;;;;;;5071036;28;20501;-57
2022/09/06 05:06:05;;;;;;;13.48;6.57;;;;;;;;;;5071375;28;20021;-57
2022/09/06 05:08:37;;;;;;;9.63;5.68;;;;;;;;;;5068327;28;20032;-58
2022/09/06 05:11:04;;;;;;;13.38;5.65;;;;;;;;;;5062225;28;20051;-57
2022/09/06 05:13:29;;;;;;;10.30;5.53;;;;;;;;;;5059861;28;20041;-59
2022/09/06 05:15:55;;;;;;;12.38;5.90;;;;;;;;;;5071063;28;20308;-59
2022/09/06 05:18:20;;;;;;;9.35;6.00;;;;;;;;;;5071380;28;20048;-58
2022/09/06 05:20:52;;;;;;;9.23;5.75;;;;;;;;;;5070547;28;20029;-59
2022/09/06 05:23:19;;;;;;;10.07;5.85;;;;;;;;;;5064489;28;20020;-59
2022/09/06 05:25:44;;;;;;;8.95;5.95;;;;;;;;;;5069681;28;20052;-59
2022/09/06 05:28:10;;;;;;;7.60;5.57;;;;;;;;;;5070823;28;20052;-58
2022/09/06 05:30:35;;;;;;;9.43;5.82;;;;;;;;;;5071683;28;20044;-59
2022/09/06 05:33:00;;;;;;;10.07;6.00;;;;;;;;;;5070657;28;20018;-58
2022/09/06 05:35:26;;;;;;;9.98;6.38;;;;;;;;;;5070662;28;20024;-59
2022/09/06 05:37:51;;;;;;;7.97;5.93;;;;;;;;;;5071392;28;20021;-59
2022/09/06 05:40:16;;;;;;;7.47;6.05;;;;;;;;;;5065258;28;20383;-59
2022/09/06 05:42:42;;;;;;;10.77;5.82;;;;;;;;;;5068228;28;20119;-59
2022/09/06 05:45:08;;;;;;;8.27;5.90;;;;;;;;;;5070025;28;20027;-59
2022/09/06 05:47:34;;;;;;;14.30;8.50;;;;;;;;;;5071537;28;20520;-59
2022/09/06 05:50:01;;;;;;;14.15;7.78;;;;;;;;;;5071336;28;20114;-59
2022/09/06 05:52:26;;;;;;;14.57;8.00;;;;;;;;;;5068865;28;20028;-59
2022/09/06 05:54:52;;;;;;;9.13;7.38;;;;;;;;;;5054669;28;20020;-59
2022/09/06 05:57:17;;;;;;;13.50;8.18;;;;;;;;;;5060544;28;20029;-58
2022/09/06 05:59:43;;;;;;;10.85;8.00;;;;;;;;;;5061440;28;20111;-59
2022/09/06 06:02:08;;;;;;;10.90;7.90;;;;;;;;;;5057959;28;20021;-59
2022/09/06 06:04:33;;;;;;;11.20;7.22;;;;;;;;;;5058717;28;20024;-58
2022/09/06 06:06:59;;;;;;;10.93;7.40;;;;;;;;;;5070388;28;20379;-59
2022/09/06 06:09:24;;;;;;;9.65;6.18;;;;;;;;;;5070483;28;20039;-59
2022/09/06 06:11:50;;;;;;;10.45;7.15;;;;;;;;;;5069671;28;20054;-59
2022/09/06 06:14:15;;;;;;;12.93;7.10;;;;;;;;;;5068979;28;20024;-59
2022/09/06 06:16:41;;;;;;;10.90;6.30;;;;;;;;;;5070023;28;20414;-59
2022/09/06 06:19:06;;;;;;;10.02;6.20;;;;;;;;;;5070101;28;20017;-59
2022/09/06 06:21:33;;;;;;;10.88;6.70;;;;;;;;;;5069475;28;20032;-59
2022/09/06 06:24:01;;;;;;;10.25;6.22;;;;;;;;;;5068835;28;20398;-59
2022/09/06 06:26:29;;;;;;;9.18;5.90;;;;;;;;;;5069986;28;20052;-59
2022/09/06 06:28:56;;;;;;;8.48;5.70;;;;;;;;;;5069364;28;20029;-59
2022/09/06 06:31:22;;;;;;;10.02;5.90;;;;;;;;;;5070257;28;20024;-59
2022/09/06 06:33:48;;;;;;;8.07;6.30;;;;;;;;;;5068488;28;20029;-59
2022/09/06 06:36:14;;;;;;;7.63;5.68;;;;;;;;;;5069658;28;20028;-58
2022/09/06 06:38:41;;;;;;;10.13;6.45;;;;;;;;;;5069757;28;20458;-58
2022/09/06 06:41:11;;;;;;;10.10;7.20;;;;;;;;;;5069928;28;20025;-58
2022/09/06 06:43:36;;;;;;;10.05;6.78;;;;;;;;;;5067180;28;20067;-58
2022/09/06 06:46:09;;;;;;;12.07;7.10;;;;;;;;;;5069518;28;20055;-58
2022/09/06 06:48:36;;;;;;;10.05;6.03;;;;;;;;;;5069662;28;20440;-58
2022/09/06 06:51:02;;;;;;;9.27;6.80;;;;;;;;;;5063519;28;20021;-58
2022/09/06 06:53:27;;;;;;;10.73;6.20;;;;;;;;;;5058574;28;20482;-58
2022/09/06 06:55:53;;;;;;;10.50;6.40;;;;;;;;;;5067918;28;20052;-58
2022/09/06 06:58:19;;;;;;;10.13;6.70;;;;;;;;;;5065691;28;20075;-58
2022/09/06 07:00:45;;;;;;;9.73;6.40;;;;;;;;;;5067759;28;20031;-58
2022/09/06 07:03:11;;;;;;;8.52;6.30;;;;;;;;;;5067582;28;20029;-58
2022/09/06 07:05:38;;;;;;;8.50;6.75;;;;;;;;;;5069320;28;20028;-58
2022/09/06 07:08:04;;;;;;;11.38;7.40;;;;;;;;;;5069592;28;20044;-58
2022/09/06 07:10:30;;;;;;;9.15;6.97;;;;;;;;;;5065025;28;20028;-58
2022/09/06 07:12:56;;;;;;;9.02;6.90;;;;;;;;;;5067087;28;20031;-58
2022/09/06 07:15:21;;;;;;;10.40;6.70;;;;;;;;;;5068989;28;20060;-58
2022/09/06 07:17:46;;;;;;;9.93;6.88;;;;;;;;;;5069241;28;20478;-57
2022/09/06 07:20:12;;;;;;;10.57;7.40;;;;;;;;;;5069410;28;20039;-58
2022/09/06 07:22:39;;;;;;;9.95;6.75;;;;;;;;;;5068278;28;20145;-58
2022/09/06 07:25:05;;;;;;;10.48;7.50;;;;;;;;;;5068176;28;20028;-58
2022/09/06 07:27:31;;;;;;;9.93;7.28;;;;;;;;;;5069233;28;20153;-58
2022/09/06 07:29:56;;;;;;;10.30;6.82;;;;;;;;;;5069263;28;20107;-58
2022/09/06 07:32:22;;;;;;;12.13;7.20;;;;;;;;;;5068893;28;20016;-58
2022/09/06 07:34:47;;;;;;;13.18;8.15;;;;;;;;;;5068795;28;20052;-58
2022/09/06 07:37:13;;;;;;;12.02;7.25;;;;;;;;;;5068979;28;20542;-58
2022/09/06 07:39:38;;;;;;;16.80;8.60;;;;;;;;;;5068411;28;20093;-58
2022/09/06 07:42:05;;;;;;;14.00;7.47;;;;;;;;;;5054329;28;20120;-58
2022/09/06 07:44:30;;;;;;;11.55;7.38;;;;;;;;;;5065781;28;20104;-58
2022/09/06 07:46:56;;;;;;;10.88;8.00;;;;;;;;;;5068259;28;20158;-58
2022/09/06 07:49:21;;;;;;;12.80;7.47;;;;;;;;;;5069038;28;20025;-58
2022/09/06 07:51:47;;;;;;;11.82;7.90;;;;;;;;;;5066220;28;20016;-58
2022/09/06 07:54:13;;;;;;;14.75;7.50;;;;;;;;;;5065255;28;20466;-58
2022/09/06 07:56:38;;;;;;;13.02;7.60;;;;;;;;;;5065564;28;20080;-58
2022/09/06 07:59:04;;;;;;;10.18;7.05;;;;;;;;;;5068067;28;20111;-58
2022/09/06 08:01:37;;;;;;;10.43;7.55;;;;;;;;;;5067915;28;20056;-58
2022/09/06 08:04:12;;;;;;;11.15;7.15;;;;;;;;;;5067632;28;20024;-58
2022/09/06 08:06:45;;;;;;;11.60;7.45;;;;;;;;;;5065641;28;20028;-58
2022/09/06 08:09:11;;;;;;;14.63;7.55;;;;;;;;;;5068591;28;20126;-58
2022/09/06 08:11:37;;;;;;;11.48;6.80;;;;;;;;;;5067772;28;20029;-58
2022/09/06 08:14:05;;;;;;;9.57;7.20;;;;;;;;;;5066932;28;20024;-58
2022/09/06 08:16:32;;;;;;;10.63;7.38;;;;;;;;;;5068255;28;20458;-58
2022/09/06 08:18:59;;;;;;;10.57;7.20;;;;;;;;;;5068257;28;20107;-58
2022/09/06 08:21:27;;;;;;;14.60;7.00;;;;;;;;;;5067574;28;20096;-58
2022/09/06 08:23:56;;;;;;;10.75;7.25;;;;;;;;;;5066816;28;20036;-58
2022/09/06 08:26:23;;;;;;;19.63;7.50;;;;;;;;;;5064060;28;20567;-58
2022/09/06 08:28:59;;;;;;;10.48;6.75;;;;;;;;;;5068867;28;20040;-58
2022/09/06 08:31:25;;;;;;;14.95;7.82;;;;;;;;;;5061135;28;20191;-58
2022/09/06 08:33:52;;;;;;;11.02;6.80;;;;;;;;;;5066668;28;20021;-58
2022/09/06 08:36:17;;;;;;;13.43;6.80;;;;;;;;;;5068365;28;20393;-58
2022/09/06 08:38:44;;;;;;;14.82;6.65;;;;;;;;;;5066109;28;20033;-58
2022/09/06 08:41:12;;;;;;;10.45;6.25;;;;;;;;;;5066012;28;20028;-58
2022/09/06 08:43:45;;;;;;;12.32;6.47;;;;;;;;;;5066112;28;20415;-58
2022/09/06 08:46:10;;;;;;;12.98;7.30;;;;;;;;;;5067797;28;20027;-58
2022/09/06 08:48:38;;;;;;;12.90;6.53;;;;;;;;;;5068208;28;20103;-58
2022/09/06 08:51:15;;;;;;;13.70;6.85;;;;;;;;;;5068354;28;20021;-58
2022/09/06 08:53:47;;;;;;;11.80;6.85;;;;;;;;;;5064651;28;20483;-58
2022/09/06 08:56:22;;;;;;;10.93;7.82;;;;;;;;;;5068013;28;20320;-58
2022/09/06 08:59:12;;;;;;;10.27;7.00;;;;;;;;;;5070863;28;20039;-58
2022/09/06 09:01:56;;;;;;;12.57;6.25;;;;;;;;;;5068075;28;20036;-58
2022/09/06 09:04:25;;;;;;;13.27;6.45;;;;;;;;;;5071762;28;20024;-58
2022/09/06 09:06:58;;;;;;;9.70;6.50;;;;;;;;;;5071399;28;20051;-58
2022/09/06 09:09:28;;;;;;;9.77;6.28;;;;;;;;;;5067068;28;20526;-58
2022/09/06 09:11:55;;;;;;;17.70;6.10;;;;;;;;;;5070863;28;20031;-58
2022/09/06 09:14:26;;;;;;;11.90;5.68;;;;;;;;;;5064043;28;20390;-58
2022/09/06 09:16:53;;;;;;;11.43;6.00;;;;;;;;;;5070245;28;20058;-58
2022/09/06 09:19:19;;;;;;;16.48;6.03;;;;;;;;;;5070615;28;20365;-58
2022/09/06 09:21:45;;;;;;;8.45;5.90;;;;;;;;;;5062039;28;20096;-58
2022/09/06 09:24:14;;;;;;;12.60;5.65;;;;;;;;;;5071763;28;20071;-58
2022/09/06 09:26:50;;;;;;;14.13;6.03;;;;;;;;;;5070642;28;20409;-58
2022/09/06 09:29:16;;;;;;;10.13;5.43;;;;;;;;;;5071255;28;20112;-58
2022/09/06 09:31:48;;;;;;;14.80;5.63;;;;;;;;;;5070820;28;20150;-58
2022/09/06 09:34:28;;;;;;;11.95;5.63;;;;;;;;;;5071216;28;20036;-58
2022/09/06 09:37:23;;;;;;;9.35;5.28;;;;;;;;;;5070602;28;20228;-58
2022/09/06 09:39:53;;;;;;;9.70;5.47;;;;;;;;;;5070340;28;20048;-58
2022/09/06 09:42:33;;;;;;;15.60;5.93;;;;;;;;;;5068916;28;20025;-58
2022/09/06 09:45:00;;;;;;;10.80;5.22;;;;;;;;;;5065548;28;20386;-58
2022/09/06 09:47:28;;;;;;;13.10;5.78;;;;;;;;;;5071060;28;20024;-58
2022/09/06 09:49:55;;;;;;;14.35;5.88;;;;;;;;;;5070872;28;20032;-58
2022/09/06 09:52:28;;;;;;;11.48;6.05;;;;;;;;;;5069454;28;20028;-58
2022/09/06 09:55:01;;;;;;;15.10;5.75;;;;;;;;;;5068322;28;20478;-58
2022/09/06 09:57:30;;;;;;;15.07;5.95;;;;;;;;;;5070631;28;20032;-59
2022/09/06 09:59:57;;;;;;;;;;;;;;;;;;5070676;28;20020;-59
2022/09/06 10:02:39;;;;;;;13.82;6.05;;;;;;;;;;5068974;28;19924;-59
2022/09/06 10:05:18;;;;;;;14.15;5.38;;;;;;;;;;5067700;28;20035;-59
2022/09/06 10:07:54;;;;;;;10.77;5.57;;;;;;;;;;5070554;28;20033;-59
2022/09/06 10:10:41;;;;;;;12.43;6.22;;;;;;;;;;5060782;28;20032;-59
2022/09/06 10:13:30;;;;;;;12.73;4.93;;;;;;;;;;5055783;28;20028;-58
2022/09/06 10:15:57;;;;;;;;;;;;;;;;;;5069668;28;20032;-58
2022/09/06 10:18:30;;;;;;;13.18;5.00;;;;;;;;;;5070339;28;20463;-58
2022/09/06 10:20:59;;;;;;;13.80;4.63;;;;;;;;;;5070198;28;20134;-58
2022/09/06 10:23:55;;;;;;;14.20;4.35;;;;;;;;;;5069447;28;20032;-59
2022/09/06 10:26:50;;;;;;;10.20;4.53;;;;;;;;;;5065606;28;20166;-58
2022/09/06 10:29:29;;;;;;;13.02;4.97;;;;;;;;;;5070179;28;20039;-58
2022/09/06 10:32:05;;;;;;;;;;;;;;;;;;5069559;28;20024;-58
2022/09/06 10:34:57;;;;;;;9.85;5.10;;;;;;;;;;5070109;28;19915;-58
2022/09/06 10:37:41;;;;;;;9.68;4.68;;;;;;;;;;5069665;28;20024;-58
2022/09/06 10:40:37;;;;;;;17.40;5.15;;;;;;;;;;5063035;28;20405;-59
2022/09/06 10:43:04;;;;;;;12.02;5.45;;;;;;;;;;5068783;28;20108;-58
2022/09/06 10:46:01;;;;;;;17.55;5.05;;;;;;;;;;5067816;28;20300;-58
2022/09/06 10:48:26;;;;;;;11.52;4.80;;;;;;;;;;5070080;28;20024;-58
2022/09/06 10:50:59;;;;;;;10.52;4.50;;;;;;;;;;5069780;28;20077;-58
2022/09/06 10:53:43;;;;;;;11.85;4.60;;;;;;;;;;5068177;28;20375;-60
2022/09/06 10:56:16;;;;;;;9.02;4.72;;;;;;;;;;5068312;28;20064;-59
2022/09/06 10:59:02;;;;;;;13.27;4.53;;;;;;;;;;5060918;28;20028;-59
2022/09/06 11:01:56;;;;;;;20.52;4.50;;;;;;;;;;5057198;28;20078;-59
2022/09/06 11:04:29;;;;;;;10.30;4.75;;;;;;;;;;5069427;28;20027;-59
2022/09/06 11:06:59;;;;;;;11.63;5.32;;;;;;;;;;5064690;28;20397;-59
2022/09/06 11:09:33;;;;;;;12.90;4.63;;;;;;;;;;5064705;28;20457;-59
2022/09/06 11:12:01;;;;;;;10.68;4.55;;;;;;;;;;5058799;28;20020;-59
2022/09/06 11:14:27;;;;;;;14.85;5.15;;;;;;;;;;5068839;28;20107;-59
2022/09/06 11:17:05;;;;;;;10.05;4.72;;;;;;;;;;5067801;28;20073;-59
2022/09/06 11:19:47;;;;;;;13.38;4.70;;;;;;;;;;5067741;28;20478;-59
2022/09/06 11:22:18;;;;;;;11.88;5.20;;;;;;;;;;5062162;28;20067;-59
2022/09/06 11:25:09;;;;;;;12.05;5.07;;;;;;;;;;5068674;28;20119;-59
2022/09/06 11:27:41;;;;;;;11.45;4.63;;;;;;;;;;5070016;28;20028;-59
2022/09/06 11:30:13;;;;;;;13.77;4.32;;;;;;;;;;5068936;28;20082;-59
2022/09/06 11:32:48;;;;;;;14.63;4.70;;;;;;;;;;5067173;28;20024;-59
2022/09/06 11:35:29;;;;;;;11.23;4.90;;;;;;;;;;5068758;28;20501;-59
2022/09/06 11:38:19;;;;;;;11.90;4.50;;;;;;;;;;5068767;28;20047;-59
2022/09/06 11:40:54;;;;;;;14.68;4.60;;;;;;;;;;5067804;28;20047;-59
2022/09/06 11:43:41;;;;;;;12.05;4.55;;;;;;;;;;5067709;28;20077;-59
2022/09/06 11:46:07;;;;;;;11.48;4.53;;;;;;;;;;5066638;28;20025;-59
2022/09/06 11:48:47;;;;;;;9.02;4.30;;;;;;;;;;5063076;28;20450;-59
2022/09/06 11:51:32;;;;;;;8.05;4.65;;;;;;;;;;5058294;28;20024;-59
2022/09/06 11:53:57;;;;;;;10.70;4.55;;;;;;;;;;5068780;28;20478;-59
2022/09/06 11:56:35;;;;;;;8.48;4.72;;;;;;;;;;5067744;28;20108;-59
2022/09/06 11:59:20;;;;;;;12.68;4.65;;;;;;;;;;5060527;28;20035;-59
2022/09/06 12:01:54;;;;;;;11.25;5.45;;;;;;;;;;5068200;28;20033;-59
2022/09/06 12:04:21;;;;;;;15.75;5.60;;;;;;;;;;5068052;28;20112;-59
2022/09/06 12:07:06;;;;;;;11.38;4.55;;;;;;;;;;5067935;28;20024;-59
2022/09/06 12:09:41;;;;;;;15.77;4.50;;;;;;;;;;5068653;28;20504;-59
2022/09/06 12:12:07;;;;;;;11.95;4.63;;;;;;;;;;5067421;28;20021;-59
2022/09/06 12:14:41;;;;;;;9.15;4.47;;;;;;;;;;5068344;28;20389;-59
2022/09/06 12:17:07;;;;;;;13.23;4.88;;;;;;;;;;5068367;28;20020;-59
2022/09/06 12:19:46;;;;;;;12.43;5.07;;;;;;;;;;5068441;28;20033;-59
2022/09/06 12:22:31;;;;;;;11.00;5.75;;;;;;;;;;5061662;28;20032;-59
2022/09/06 12:25:00;;;;;;;12.00;5.50;;;;;;;;;;5068867;28;20398;-59
2022/09/06 12:27:29;;;;;;;15.93;5.65;;;;;;;;;;5069067;28;20398;-59
2022/09/06 12:29:58;;;;;;;9.52;4.75;;;;;;;;;;5067347;28;20055;-59
2022/09/06 12:32:28;;;;;;;9.65;5.22;;;;;;;;;;5069092;28;20052;-59
2022/09/06 12:34:55;;;;;;;11.82;5.95;;;;;;;;;;5072519;28;20024;-59
2022/09/06 12:37:53;;;;;;;10.73;5.13;;;;;;;;;;5072204;28;20017;-59
2022/09/06 12:40:21;;;;;;;16.25;5.35;;;;;;;;;;5054583;28;20021;-59
2022/09/06 12:42:48;;;;;;;13.60;5.55;;;;;;;;;;5063929;28;20101;-59
2022/09/06 12:45:14;;;;;;;9.45;4.93;;;;;;;;;;5070205;28;20024;-59
2022/09/06 12:47:40;;;;;;;11.75;5.50;;;;;;;;;;5071791;28;20028;-59
2022/09/06 12:50:19;;;;;;;11.30;5.50;;;;;;;;;;5072098;28;20035;-59
2022/09/06 12:52:52;;;;;;;10.38;5.00;;;;;;;;;;5069315;28;20066;-59
2022/09/06 12:55:31;;;;;;;12.75;4.65;;;;;;;;;;5070688;28;20020;-59
2022/09/06 12:57:58;;;;;;;9.40;4.38;;;;;;;;;;5068526;28;20393;-60
2022/09/06 13:00:32;;;;;;;8.10;3.50;;;;;;;;;;5071993;28;20024;-60
2022/09/06 13:03:09;;;;;;;10.10;4.60;;;;;;;;;;5067376;28;20024;-59
2022/09/06 13:05:39;;;;;;;14.05;4.82;;;;;;;;;;5067730;28;20036;-59
2022/09/06 13:08:12;;;;;;;8.60;3.92;;;;;;;;;;5071834;28;20249;-59
2022/09/06 13:10:41;;;;;;;11.98;4.10;;;;;;;;;;5067313;28;20104;-59
2022/09/06 13:13:07;;;;;;;10.20;3.75;;;;;;;;;;5069425;28;20021;-60
2022/09/06 13:15:32;;;;;;;10.38;3.97;;;;;;;;;;5071427;28;20032;-59
2022/09/06 13:18:31;;;;;;;13.73;4.13;;;;;;;;;;5062580;28;20611;-59
2022/09/06 13:21:03;;;;;;;10.55;3.80;;;;;;;;;;5070417;28;20056;-60
2022/09/06 13:23:30;;;;;;;9.48;3.92;;;;;;;;;;5071585;28;20422;-59
2022/09/06 13:25:56;;;;;;;9.65;4.50;;;;;;;;;;5071843;28;20103;-59
2022/09/06 13:28:28;;;;;;;10.30;4.18;;;;;;;;;;5064324;28;20029;-59
2022/09/06 13:31:12;;;;;;;10.13;4.10;;;;;;;;;;5062545;28;20039;-59
2022/09/06 13:33:39;;;;;;;11.77;4.78;;;;;;;;;;5068693;28;20376;-60
2022/09/06 13:36:10;;;;;;;13.32;4.13;;;;;;;;;;5058537;28;20036;-59
2022/09/06 13:38:42;;;;;;;12.30;4.40;;;;;;;;;;5069130;28;20063;-59
2022/09/06 13:41:34;;;;;;;10.98;4.75;;;;;;;;;;5071284;28;20020;-59
2022/09/06 13:44:14;;;;;;;9.50;4.20;;;;;;;;;;5069814;28;20028;-59
2022/09/06 13:46:40;;;;;;;8.25;3.70;;;;;;;;;;5070479;28;20028;-59
2022/09/06 13:49:06;;;;;;;9.07;4.13;;;;;;;;;;5071399;28;20108;-59
2022/09/06 13:51:32;;;;;;;12.60;4.40;;;;;;;;;;5070547;28;20020;-59
2022/09/06 13:54:12;;;;;;;10.45;4.45;;;;;;;;;;5070383;28;20029;-59
2022/09/06 13:56:40;;;;;;;8.95;4.30;;;;;;;;;;5067946;28;20436;-59
2022/09/06 13:59:08;;;;;;;10.68;3.88;;;;;;;;;;5070613;28;20020;-59
2022/09/06 14:01:34;;;;;;;9.90;4.38;;;;;;;;;;5069777;28;20218;-60
2022/09/06 14:03:59;;;;;;;12.63;4.90;;;;;;;;;;5070050;28;20549;-59
2022/09/06 14:06:25;;;;;;;16.13;4.85;;;;;;;;;;5070839;28;20028;-59
2022/09/06 14:08:50;;;;;;;12.65;4.40;;;;;;;;;;5070753;28;20031;-60
2022/09/06 14:11:16;;;;;;;11.43;4.53;;;;;;;;;;5070621;28;20039;-60
2022/09/06 14:13:42;;;;;;;11.68;4.38;;;;;;;;;;5068068;28;20496;-58
2022/09/06 14:16:07;;;;;;;12.52;4.88;;;;;;;;;;5069574;28;20028;-58
2022/09/06 14:18:32;;;;;;;11.68;4.03;;;;;;;;;;5070095;28;20512;-59
2022/09/06 14:20:58;;;;;;;9.82;4.10;;;;;;;;;;5062234;28;20394;-59
2022/09/06 14:23:24;;;;;;;11.93;4.15;;;;;;;;;;5070343;28;20421;-59
2022/09/06 14:26:01;;;;;;;9.90;3.72;;;;;;;;;;5069125;28;20482;-59
2022/09/06 14:28:27;;;;;;;8.43;3.92;;;;;;;;;;5069982;28;20077;-59
2022/09/06 14:30:52;;;;;;;8.88;3.90;;;;;;;;;;5070014;28;20116;-59
2022/09/06 14:33:20;;;;;;;13.07;3.80;;;;;;;;;;5069641;28;20095;-58
2022/09/06 14:35:46;;;;;;;13.43;3.70;;;;;;;;;;5068833;28;20166;-59
2022/09/06 14:38:11;;;;;;;14.50;4.47;;;;;;;;;;5070331;28;20553;-59
2022/09/06 14:40:38;;;;;;;8.40;3.58;;;;;;;;;;5069304;28;20021;-59
2022/09/06 14:43:04;;;;;;;10.05;3.88;;;;;;;;;;5068719;28;20509;-59
2022/09/06 14:45:32;;;;;;;8.93;4.07;;;;;;;;;;5067033;28;20044;-58
2022/09/06 14:47:58;;;;;;;9.55;4.05;;;;;;;;;;5069882;28;20058;-59
2022/09/06 14:50:23;;;;;;;9.88;4.05;;;;;;;;;;5070128;28;20079;-59
2022/09/06 14:52:49;;;;;;;11.10;3.63;;;;;;;;;;5069076;28;20020;-58
2022/09/06 14:55:14;;;;;;;13.57;4.20;;;;;;;;;;5068035;28;20033;-59